Glenda Meredith — A8TX2 — position and weather

sailwx.info

Track history (hours):
 
Tides and Currents Weather Stations Pressure Air Temp Water Temp Dewpoint Dewpoint Depression Visibility Wind Speed Wind Dir Waves Ship Positions

Glenda Meredith

Last reported at 2017-Nov-30 12:08 UTC. Time now 2017-Dec-12 02:52 UTC.
Position N 29°19' W 094°39'.
Warning: this ship's position is 11 days out of date.

Length 183 m; draft 11.1 m.

Type: Ship. MMSI: 636014450.

Date/timePositionNaut miles runAvg speedWind from/ knotsBaromVisibWave heightAir tempDewpointWater temp
2017-Nov-30 12:08N 29°19' W 094°39'213.2
2017-Nov-30 11:57N 29°20' W 094°41'1210.9
2017-Nov-30 10:48N 29°29' W 094°52'311.1
2017-Nov-30 10:30N 29°32' W 094°54'510.7
2017-Nov-30 10:00N 29°36' W 094°57'510.2
2017-Nov-30 09:30N 29°41' W 094°59'4 7.6
2017-Nov-30 09:00N 29°44' W 095°02'4 7.0
2017-Nov-30 08:30N 29°46' W 095°05'3 5.7
2017-Nov-30 08:00N 29°44' W 095°08'3 5.2
2017-Nov-30 07:30N 29°45' W 095°11'1 1.4
2017-Nov-30 07:00N 29°45' W 095°11'0 0.0
2017-Nov-30 06:30N 29°45' W 095°11'0 0.0
2017-Nov-30 05:46N 29°45' W 095°11'0 0.0
2017-Nov-30 05:28N 29°45' W 095°11'0 0.0
2017-Nov-30 04:58N 29°45' W 095°11'0 0.0
2017-Nov-30 04:28N 29°45' W 095°11'0 0.0
2017-Nov-28 09:22N 29°45' W 095°11'0 0.0
2017-Nov-28 08:58N 29°45' W 095°11'0 0.0
2017-Nov-28 07:55N 29°45' W 095°11'0 0.0
2017-Nov-28 07:22N 29°45' W 095°11'0 0.0
2017-Nov-28 05:46N 29°45' W 095°11'0 0.0
2017-Nov-28 05:28N 29°45' W 095°11'0 0.0
2017-Nov-28 04:28N 29°45' W 095°11'0 0.0
2017-Nov-28 00:11N 29°45' W 095°11'0 0.0
2017-Nov-28 00:00N 29°45' W 095°11'1 1.4
2017-Nov-27 23:30N 29°44' W 095°12'2 4.3
2017-Nov-27 23:00N 29°45' W 095°10'3 6.1
2017-Nov-27 22:30N 29°45' W 095°06'2 4.7
2017-Nov-27 22:00N 29°44' W 095°04'3 7.0
2017-Nov-27 21:30N 29°42' W 095°01'5 9.7
2017-Nov-27 21:00N 29°38' W 094°58'510.3
2017-Nov-27 20:30N 29°33' W 094°55'913.0
2017-Nov-27 19:50N 29°26' W 094°50'32 1.5
2017-Nov-26 21:56N 29°01' W 094°27'  
2017-Nov-23 09:33N 27°42' W 082°33'113.8
2017-Nov-23 09:29N 27°43' W 082°33'612.2
2017-Nov-23 09:00N 27°48' W 082°30'4 8.1
2017-Nov-23 08:30N 27°51' W 082°27'4 7.3
2017-Nov-23 08:00N 27°54' W 082°26'1 1.1
2017-Nov-23 07:30N 27°55' W 082°27'0 0.0
2017-Nov-23 07:00N 27°55' W 082°27'0 0.0
2017-Nov-23 06:30N 27°55' W 082°27'0 0.0
2017-Nov-23 05:58N 27°55' W 082°27'0 0.0
2017-Nov-23 05:25N 27°55' W 082°27'0 0.0
2017-Nov-23 04:58N 27°55' W 082°27'0 0.0
2017-Nov-23 04:28N 27°55' W 082°27'0 0.0
2017-Nov-23 03:58N 27°55' W 082°27'0 0.0
2017-Nov-23 03:28N 27°55' W 082°27'0 0.0
2017-Nov-23 02:58N 27°55' W 082°27'0 0.0
2017-Nov-23 02:28N 27°55' W 082°27'0 0.0
2017-Nov-23 01:58N 27°55' W 082°27'0 0.0
2017-Nov-23 01:28N 27°55' W 082°27'0 0.0
2017-Nov-23 00:58N 27°55' W 082°27'0 0.0
2017-Nov-23 00:22N 27°55' W 082°27'0 0.0
2017-Nov-22 23:58N 27°55' W 082°27'0 0.0
2017-Nov-22 23:28N 27°55' W 082°27'0 0.0
2017-Nov-22 22:58N 27°55' W 082°27'0 0.0
2017-Nov-22 22:28N 27°55' W 082°27'0 0.0
2017-Nov-22 21:58N 27°55' W 082°27'0 0.0
2017-Nov-22 21:25N 27°55' W 082°27'0 0.0
2017-Nov-22 20:58N 27°55' W 082°27'0 0.0
2017-Nov-22 20:28N 27°55' W 082°27'0 0.0
2017-Nov-22 19:58N 27°55' W 082°27'0 0.0
2017-Nov-22 19:28N 27°55' W 082°27'  
Track history (hours):
 
Tides and Currents Weather Stations Pressure Air Temp Water Temp Dewpoint Dewpoint Depression Visibility Wind Speed Wind Dir Waves Ship Positions

Glenda Meredith

Last reported at 2017-Nov-30 12:08 UTC. Time now 2017-Dec-12 02:52 UTC.
Position N 29°19' W 094°39'.
Warning: this ship's position is 11 days out of date.

Length 183 m; draft 11.1 m.

Type: Ship. MMSI: 636014450.

Date/timePositionNaut miles runAvg speedWind from/ knotsBaromVisibWave heightAir tempDewpointWater temp
2017-Nov-30 12:08N 29°19' W 094°39'213.2
2017-Nov-30 11:57N 29°20' W 094°41'1210.9
2017-Nov-30 10:48N 29°29' W 094°52'311.1
2017-Nov-30 10:30N 29°32' W 094°54'510.7
2017-Nov-30 10:00N 29°36' W 094°57'510.2
2017-Nov-30 09:30N 29°41' W 094°59'4 7.6
2017-Nov-30 09:00N 29°44' W 095°02'4 7.0
2017-Nov-30 08:30N 29°46' W 095°05'3 5.7
2017-Nov-30 08:00N 29°44' W 095°08'3 5.2
2017-Nov-30 07:30N 29°45' W 095°11'1 1.4
2017-Nov-30 07:00N 29°45' W 095°11'0 0.0
2017-Nov-30 06:30N 29°45' W 095°11'0 0.0
2017-Nov-30 05:46N 29°45' W 095°11'0 0.0
2017-Nov-30 05:28N 29°45' W 095°11'0 0.0
2017-Nov-30 04:58N 29°45' W 095°11'0 0.0
2017-Nov-30 04:28N 29°45' W 095°11'0 0.0
2017-Nov-28 09:22N 29°45' W 095°11'0 0.0
2017-Nov-28 08:58N 29°45' W 095°11'0 0.0
2017-Nov-28 07:55N 29°45' W 095°11'0 0.0
2017-Nov-28 07:22N 29°45' W 095°11'0 0.0
2017-Nov-28 05:46N 29°45' W 095°11'0 0.0
2017-Nov-28 05:28N 29°45' W 095°11'0 0.0
2017-Nov-28 04:28N 29°45' W 095°11'0 0.0
2017-Nov-28 00:11N 29°45' W 095°11'0 0.0
2017-Nov-28 00:00N 29°45' W 095°11'1 1.4
2017-Nov-27 23:30N 29°44' W 095°12'2 4.3
2017-Nov-27 23:00N 29°45' W 095°10'3 6.1
2017-Nov-27 22:30N 29°45' W 095°06'2 4.7
2017-Nov-27 22:00N 29°44' W 095°04'3 7.0
2017-Nov-27 21:30N 29°42' W 095°01'5 9.7
2017-Nov-27 21:00N 29°38' W 094°58'510.3
2017-Nov-27 20:30N 29°33' W 094°55'913.0
2017-Nov-27 19:50N 29°26' W 094°50'32 1.5
2017-Nov-26 21:56N 29°01' W 094°27'  
2017-Nov-23 09:33N 27°42' W 082°33'113.8
2017-Nov-23 09:29N 27°43' W 082°33'612.2
2017-Nov-23 09:00N 27°48' W 082°30'4 8.1
2017-Nov-23 08:30N 27°51' W 082°27'4 7.3
2017-Nov-23 08:00N 27°54' W 082°26'1 1.1
2017-Nov-23 07:30N 27°55' W 082°27'0 0.0
2017-Nov-23 07:00N 27°55' W 082°27'0 0.0
2017-Nov-23 06:30N 27°55' W 082°27'0 0.0
2017-Nov-23 05:58N 27°55' W 082°27'0 0.0
2017-Nov-23 05:25N 27°55' W 082°27'0 0.0
2017-Nov-23 04:58N 27°55' W 082°27'0 0.0
2017-Nov-23 04:28N 27°55' W 082°27'0 0.0
2017-Nov-23 03:58N 27°55' W 082°27'0 0.0
2017-Nov-23 03:28N 27°55' W 082°27'0 0.0
2017-Nov-23 02:58N 27°55' W 082°27'0 0.0
2017-Nov-23 02:28N 27°55' W 082°27'0 0.0
2017-Nov-23 01:58N 27°55' W 082°27'0 0.0
2017-Nov-23 01:28N 27°55' W 082°27'0 0.0
2017-Nov-23 00:58N 27°55' W 082°27'0 0.0
2017-Nov-23 00:22N 27°55' W 082°27'0 0.0
2017-Nov-22 23:58N 27°55' W 082°27'0 0.0
2017-Nov-22 23:28N 27°55' W 082°27'0 0.0
2017-Nov-22 22:58N 27°55' W 082°27'0 0.0
2017-Nov-22 22:28N 27°55' W 082°27'0 0.0
2017-Nov-22 21:58N 27°55' W 082°27'0 0.0
2017-Nov-22 21:25N 27°55' W 082°27'0 0.0
2017-Nov-22 20:58N 27°55' W 082°27'0 0.0
2017-Nov-22 20:28N 27°55' W 082°27'0 0.0
2017-Nov-22 19:58N 27°55' W 082°27'0 0.0
2017-Nov-22 19:28N 27°55' W 082°27'  

Dump ship's entire track history